Accueil
METAR-TAF:

METAR-TAF

Aéroports :

Manassas Regional Airport (Harry P. Davis Field)

Manassas, Virginie, États-Unis

latitude: 38-43N, longitude: 077-31W, altitude: 59 m

Observation

Le bulletin a été fait il y a 31 minutes, à 05:56 UTC
Vent 3 kt de sud/sud-est
Température 17°C
Humidité 88%
Pression 1011 hPa
Visibilité: 16.1 km
Ciel clair

METAR: KHEF 030556Z AUTO 16003KT 10SM CLR 17/15 A2984 RMK AO2 SLP107 T01720150 10244 20167 56014

Heure: 02:27 (06:27 UTC)


TAF: absent

Observations et prévisions météorologiques de plus de 4000 aéroports (messages METAR et TAF).

Les stations disponibles sont représentées par des disques jaunes et rouges sur la carte.

Passer la souris dessus pour voir le nom de la station.

Cliquer dessus pour voir les observations et prévisions météorologiques.

Pour changer de carte: cliquez sur les boutons verts avec une croix noire pour zoomer, sur le bouton vert avec un tiret pour effectuer un zoom arrière, ou sur les flèches vertes pour les cartes adjacentes.


METAR-TAF: